sensor_id;sensor_type;location;lat;lon;timestamp;temperature;humidity
13598;DHT22;38563;54.258;12.574;2023-02-08T00:02:00;-3.10;99.90
13598;DHT22;38563;54.258;12.574;2023-02-08T00:04:27;-3.10;99.90
13598;DHT22;38563;54.258;12.574;2023-02-08T00:06:55;-3.20;99.90
13598;DHT22;38563;54.258;12.574;2023-02-08T00:09:22;-3.10;99.90
13598;DHT22;38563;54.258;12.574;2023-02-08T00:11:48;-3.10;99.90
13598;DHT22;38563;54.258;12.574;2023-02-08T00:14:15;-3.10;99.90
13598;DHT22;38563;54.258;12.574;2023-02-08T00:16:42;-3.00;99.90
13598;DHT22;38563;54.258;12.574;2023-02-08T00:19:09;-3.00;99.90
13598;DHT22;38563;54.258;12.574;2023-02-08T00:21:35;-3.00;99.90
13598;DHT22;38563;54.258;12.574;2023-02-08T00:24:04;-3.10;99.90
13598;DHT22;38563;54.258;12.574;2023-02-08T00:26:30;-3.00;99.90
13598;DHT22;38563;54.258;12.574;2023-02-08T00:28:57;-3.10;99.90
13598;DHT22;38563;54.258;12.574;2023-02-08T00:31:24;-3.00;99.90
13598;DHT22;38563;54.258;12.574;2023-02-08T00:33:51;-3.00;99.90
13598;DHT22;38563;54.258;12.574;2023-02-08T00:36:17;-3.00;99.90
13598;DHT22;38563;54.258;12.574;2023-02-08T00:38:44;-2.90;99.90
13598;DHT22;38563;54.258;12.574;2023-02-08T00:41:12;-2.90;99.90
13598;DHT22;38563;54.258;12.574;2023-02-08T00:43:39;-2.90;99.90
13598;DHT22;38563;54.258;12.574;2023-02-08T00:46:05;-2.90;99.90
13598;DHT22;38563;54.258;12.574;2023-02-08T00:48:34;-2.90;99.90
13598;DHT22;38563;54.258;12.574;2023-02-08T00:51:02;-2.90;99.90
13598;DHT22;38563;54.258;12.574;2023-02-08T00:53:29;-3.00;99.90
13598;DHT22;38563;54.258;12.574;2023-02-08T00:55:56;-3.00;99.90
13598;DHT22;38563;54.258;12.574;2023-02-08T00:58:25;-2.90;99.90
13598;DHT22;38563;54.258;12.574;2023-02-08T01:00:52;-3.00;99.90
13598;DHT22;38563;54.258;12.574;2023-02-08T01:03:19;-3.00;99.90
13598;DHT22;38563;54.258;12.574;2023-02-08T01:05:46;-3.00;99.90
13598;DHT22;38563;54.258;12.574;2023-02-08T01:08:12;-3.00;99.90
13598;DHT22;38563;54.258;12.574;2023-02-08T01:10:39;-3.00;99.90
13598;DHT22;38563;54.258;12.574;2023-02-08T01:13:07;-3.00;99.90
13598;DHT22;38563;54.258;12.574;2023-02-08T01:15:35;-3.00;99.90
13598;DHT22;38563;54.258;12.574;2023-02-08T01:18:02;-3.10;99.90
13598;DHT22;38563;54.258;12.574;2023-02-08T01:20:29;-3.10;99.90
13598;DHT22;38563;54.258;12.574;2023-02-08T01:22:56;-3.10;99.90
13598;DHT22;38563;54.258;12.574;2023-02-08T01:25:23;-3.10;99.90
13598;DHT22;38563;54.258;12.574;2023-02-08T01:27:49;-3.10;99.90
13598;DHT22;38563;54.258;12.574;2023-02-08T01:30:18;-3.10;99.90
13598;DHT22;38563;54.258;12.574;2023-02-08T01:32:46;-3.00;99.90
13598;DHT22;38563;54.258;12.574;2023-02-08T01:35:12;-3.10;99.90
13598;DHT22;38563;54.258;12.574;2023-02-08T01:37:39;-3.10;99.90
13598;DHT22;38563;54.258;12.574;2023-02-08T01:40:07;-3.10;99.90
13598;DHT22;38563;54.258;12.574;2023-02-08T01:42:33;-3.10;99.90
13598;DHT22;38563;54.258;12.574;2023-02-08T01:45:24;-3.00;99.90
13598;DHT22;38563;54.258;12.574;2023-02-08T01:48:01;-3.00;99.90
13598;DHT22;38563;54.258;12.574;2023-02-08T01:50:34;-3.00;99.90
13598;DHT22;38563;54.258;12.574;2023-02-08T01:53:02;-3.10;99.90
13598;DHT22;38563;54.258;12.574;2023-02-08T01:55:33;-3.10;99.90
13598;DHT22;38563;54.258;12.574;2023-02-08T01:58:05;-3.10;99.90
13598;DHT22;38563;54.258;12.574;2023-02-08T02:00:33;-3.00;99.90
13598;DHT22;38563;54.258;12.574;2023-02-08T02:03:02;-2.90;99.90
13598;DHT22;38563;54.258;12.574;2023-02-08T02:05:34;-3.00;99.90
13598;DHT22;38563;54.258;12.574;2023-02-08T02:08:03;-3.00;99.90
13598;DHT22;38563;54.258;12.574;2023-02-08T02:10:32;-3.00;99.90
13598;DHT22;38563;54.258;12.574;2023-02-08T02:13:02;-3.00;99.90
13598;DHT22;38563;54.258;12.574;2023-02-08T02:15:29;-3.10;99.90
13598;DHT22;38563;54.258;12.574;2023-02-08T02:17:56;-3.10;99.90
13598;DHT22;38563;54.258;12.574;2023-02-08T02:20:35;-3.10;99.90
13598;DHT22;38563;54.258;12.574;2023-02-08T02:23:42;-3.10;99.90
13598;DHT22;38563;54.258;12.574;2023-02-08T02:26:42;-3.10;99.90
13598;DHT22;38563;54.258;12.574;2023-02-08T02:32:33;-3.20;99.90
13598;DHT22;38563;54.258;12.574;2023-02-08T02:35:05;-3.20;99.90
13598;DHT22;38563;54.258;12.574;2023-02-08T02:37:46;-3.20;99.90
13598;DHT22;38563;54.258;12.574;2023-02-08T02:40:23;-3.30;99.90
13598;DHT22;38563;54.258;12.574;2023-02-08T02:42:59;-3.30;99.90
13598;DHT22;38563;54.258;12.574;2023-02-08T02:45:48;-3.30;99.90
13598;DHT22;38563;54.258;12.574;2023-02-08T02:48:22;-3.40;99.90
13598;DHT22;38563;54.258;12.574;2023-02-08T02:50:54;-3.50;99.90
13598;DHT22;38563;54.258;12.574;2023-02-08T02:53:28;-3.50;99.90
13598;DHT22;38563;54.258;12.574;2023-02-08T02:55:59;-3.50;99.90
13598;DHT22;38563;54.258;12.574;2023-02-08T02:58:29;-3.60;99.90
13598;DHT22;38563;54.258;12.574;2023-02-08T03:00:57;-3.60;99.90
13598;DHT22;38563;54.258;12.574;2023-02-08T03:03:27;-3.70;99.90
13598;DHT22;38563;54.258;12.574;2023-02-08T03:06:00;-3.80;99.90
13598;DHT22;38563;54.258;12.574;2023-02-08T03:08:52;-3.80;99.90
13598;DHT22;38563;54.258;12.574;2023-02-08T03:11:23;-3.80;99.90
13598;DHT22;38563;54.258;12.574;2023-02-08T03:14:02;-3.70;99.90
13598;DHT22;38563;54.258;12.574;2023-02-08T03:16:48;-3.70;99.90
13598;DHT22;38563;54.258;12.574;2023-02-08T03:19:26;-3.70;99.90
13598;DHT22;38563;54.258;12.574;2023-02-08T03:21:58;-3.70;99.90
13598;DHT22;38563;54.258;12.574;2023-02-08T03:24:29;-3.60;99.90
13598;DHT22;38563;54.258;12.574;2023-02-08T03:27:00;-3.60;99.90
13598;DHT22;38563;54.258;12.574;2023-02-08T03:29:40;-3.60;99.90
13598;DHT22;38563;54.258;12.574;2023-02-08T03:32:13;-3.70;99.90
13598;DHT22;38563;54.258;12.574;2023-02-08T03:34:49;-3.60;99.90
13598;DHT22;38563;54.258;12.574;2023-02-08T03:37:20;-3.50;99.90
13598;DHT22;38563;54.258;12.574;2023-02-08T03:39:50;-3.50;99.90
13598;DHT22;38563;54.258;12.574;2023-02-08T03:42:22;-3.50;99.90
13598;DHT22;38563;54.258;12.574;2023-02-08T03:44:54;-3.50;99.90
13598;DHT22;38563;54.258;12.574;2023-02-08T03:47:25;-3.60;99.90
13598;DHT22;38563;54.258;12.574;2023-02-08T03:49:58;-3.60;99.90
13598;DHT22;38563;54.258;12.574;2023-02-08T03:52:27;-3.60;99.90
13598;DHT22;38563;54.258;12.574;2023-02-08T03:55:00;-3.60;99.90
13598;DHT22;38563;54.258;12.574;2023-02-08T03:57:29;-3.60;99.90
13598;DHT22;38563;54.258;12.574;2023-02-08T03:59:59;-3.60;99.90
13598;DHT22;38563;54.258;12.574;2023-02-08T04:02:28;-3.60;99.90
13598;DHT22;38563;54.258;12.574;2023-02-08T04:04:56;-3.60;99.90
13598;DHT22;38563;54.258;12.574;2023-02-08T04:07:24;-3.70;99.90
13598;DHT22;38563;54.258;12.574;2023-02-08T04:09:50;-3.70;99.90
13598;DHT22;38563;54.258;12.574;2023-02-08T04:12:17;-3.70;99.90
13598;DHT22;38563;54.258;12.574;2023-02-08T04:14:44;-3.70;99.90
13598;DHT22;38563;54.258;12.574;2023-02-08T04:17:11;-3.70;99.90
13598;DHT22;38563;54.258;12.574;2023-02-08T04:19:37;-3.70;99.90
13598;DHT22;38563;54.258;12.574;2023-02-08T04:22:05;-3.70;99.90
13598;DHT22;38563;54.258;12.574;2023-02-08T04:24:32;-3.70;99.90
13598;DHT22;38563;54.258;12.574;2023-02-08T04:26:59;-3.70;99.90
13598;DHT22;38563;54.258;12.574;2023-02-08T04:29:26;-3.70;99.90
13598;DHT22;38563;54.258;12.574;2023-02-08T04:31:52;-3.70;99.90
13598;DHT22;38563;54.258;12.574;2023-02-08T04:34:19;-3.60;99.90
13598;DHT22;38563;54.258;12.574;2023-02-08T04:36:46;-3.60;99.90
13598;DHT22;38563;54.258;12.574;2023-02-08T04:39:14;-3.70;99.90
13598;DHT22;38563;54.258;12.574;2023-02-08T04:41:41;-3.70;99.90
13598;DHT22;38563;54.258;12.574;2023-02-08T04:44:07;-3.60;99.90
13598;DHT22;38563;54.258;12.574;2023-02-08T04:46:34;-3.60;99.90
13598;DHT22;38563;54.258;12.574;2023-02-08T04:49:01;-3.50;99.90
13598;DHT22;38563;54.258;12.574;2023-02-08T04:51:27;-3.50;99.90
13598;DHT22;38563;54.258;12.574;2023-02-08T04:53:54;-3.60;99.90
13598;DHT22;38563;54.258;12.574;2023-02-08T04:56:22;-3.60;99.90
13598;DHT22;38563;54.258;12.574;2023-02-08T04:58:49;-3.60;99.90
13598;DHT22;38563;54.258;12.574;2023-02-08T05:01:15;-3.60;99.90
13598;DHT22;38563;54.258;12.574;2023-02-08T05:03:42;-3.60;99.90
13598;DHT22;38563;54.258;12.574;2023-02-08T05:06:09;-3.60;99.90
13598;DHT22;38563;54.258;12.574;2023-02-08T05:08:35;-3.60;99.90
13598;DHT22;38563;54.258;12.574;2023-02-08T05:11:02;-3.50;99.90
13598;DHT22;38563;54.258;12.574;2023-02-08T05:13:30;-3.50;99.90
13598;DHT22;38563;54.258;12.574;2023-02-08T05:15:57;-3.50;99.90
13598;DHT22;38563;54.258;12.574;2023-02-08T05:18:24;-3.50;99.90
13598;DHT22;38563;54.258;12.574;2023-02-08T05:20:55;-3.60;99.90
13598;DHT22;38563;54.258;12.574;2023-02-08T05:23:22;-3.60;99.90
13598;DHT22;38563;54.258;12.574;2023-02-08T05:25:49;-3.60;99.90
13598;DHT22;38563;54.258;12.574;2023-02-08T05:28:16;-3.60;99.90
13598;DHT22;38563;54.258;12.574;2023-02-08T05:30:44;-3.60;99.90
13598;DHT22;38563;54.258;12.574;2023-02-08T05:33:11;-3.60;99.90
13598;DHT22;38563;54.258;12.574;2023-02-08T05:35:37;-3.70;99.90
13598;DHT22;38563;54.258;12.574;2023-02-08T05:38:04;-3.60;99.90
13598;DHT22;38563;54.258;12.574;2023-02-08T05:40:32;-3.60;99.90
13598;DHT22;38563;54.258;12.574;2023-02-08T05:42:59;-3.60;99.90
13598;DHT22;38563;54.258;12.574;2023-02-08T05:45:26;-3.50;99.90
13598;DHT22;38563;54.258;12.574;2023-02-08T05:47:54;-3.50;99.90
13598;DHT22;38563;54.258;12.574;2023-02-08T05:50:20;-3.60;99.90
13598;DHT22;38563;54.258;12.574;2023-02-08T05:52:49;-3.50;99.90
13598;DHT22;38563;54.258;12.574;2023-02-08T05:55:16;-3.50;99.90
13598;DHT22;38563;54.258;12.574;2023-02-08T05:57:42;-3.60;99.90
13598;DHT22;38563;54.258;12.574;2023-02-08T06:00:10;-3.60;99.90
13598;DHT22;38563;54.258;12.574;2023-02-08T06:02:43;-3.70;99.90
13598;DHT22;38563;54.258;12.574;2023-02-08T06:05:11;-3.70;99.90
13598;DHT22;38563;54.258;12.574;2023-02-08T06:07:38;-3.80;99.90
13598;DHT22;38563;54.258;12.574;2023-02-08T06:10:05;-3.90;99.90
13598;DHT22;38563;54.258;12.574;2023-02-08T06:12:32;-3.90;99.90
13598;DHT22;38563;54.258;12.574;2023-02-08T06:14:59;-3.90;99.90
13598;DHT22;38563;54.258;12.574;2023-02-08T06:17:25;-4.00;99.90
13598;DHT22;38563;54.258;12.574;2023-02-08T06:19:52;-4.10;99.90
13598;DHT22;38563;54.258;12.574;2023-02-08T06:22:20;-4.00;99.90
13598;DHT22;38563;54.258;12.574;2023-02-08T06:24:47;-4.00;99.90
13598;DHT22;38563;54.258;12.574;2023-02-08T06:27:14;-3.90;99.90
13598;DHT22;38563;54.258;12.574;2023-02-08T06:29:40;-3.90;99.90
13598;DHT22;38563;54.258;12.574;2023-02-08T06:32:07;-3.90;99.90
13598;DHT22;38563;54.258;12.574;2023-02-08T06:34:34;-3.80;99.90
13598;DHT22;38563;54.258;12.574;2023-02-08T06:37:00;-3.70;99.90
13598;DHT22;38563;54.258;12.574;2023-02-08T06:39:31;-3.70;99.90
13598;DHT22;38563;54.258;12.574;2023-02-08T06:41:57;-3.70;99.90
13598;DHT22;38563;54.258;12.574;2023-02-08T06:44:24;-3.70;99.90
13598;DHT22;38563;54.258;12.574;2023-02-08T06:46:51;-3.70;99.90
13598;DHT22;38563;54.258;12.574;2023-02-08T06:49:18;-3.70;99.90
13598;DHT22;38563;54.258;12.574;2023-02-08T06:51:45;-3.80;99.90
13598;DHT22;38563;54.258;12.574;2023-02-08T06:54:11;-3.80;99.90
13598;DHT22;38563;54.258;12.574;2023-02-08T06:56:41;-3.90;99.90
13598;DHT22;38563;54.258;12.574;2023-02-08T06:59:08;-3.80;99.90
13598;DHT22;38563;54.258;12.574;2023-02-08T07:01:35;-3.80;99.90
13598;DHT22;38563;54.258;12.574;2023-02-08T07:04:01;-3.90;99.90
13598;DHT22;38563;54.258;12.574;2023-02-08T07:06:28;-4.00;99.90
13598;DHT22;38563;54.258;12.574;2023-02-08T07:08:55;-4.10;99.90
13598;DHT22;38563;54.258;12.574;2023-02-08T07:11:22;-4.10;99.90
13598;DHT22;38563;54.258;12.574;2023-02-08T07:13:50;-4.10;99.90
13598;DHT22;38563;54.258;12.574;2023-02-08T07:16:18;-4.00;99.90
13598;DHT22;38563;54.258;12.574;2023-02-08T07:18:44;-3.90;99.90
13598;DHT22;38563;54.258;12.574;2023-02-08T07:21:11;-3.80;99.90
13598;DHT22;38563;54.258;12.574;2023-02-08T07:23:38;-3.70;99.90
13598;DHT22;38563;54.258;12.574;2023-02-08T07:26:07;-3.60;99.90
13598;DHT22;38563;54.258;12.574;2023-02-08T07:28:35;-3.50;99.90
13598;DHT22;38563;54.258;12.574;2023-02-08T07:31:05;-3.40;99.90
13598;DHT22;38563;54.258;12.574;2023-02-08T07:33:32;-3.30;99.90
13598;DHT22;38563;54.258;12.574;2023-02-08T07:35:58;-3.40;99.90
13598;DHT22;38563;54.258;12.574;2023-02-08T07:38:25;-3.40;99.90
13598;DHT22;38563;54.258;12.574;2023-02-08T07:40:59;-3.30;99.90
13598;DHT22;38563;54.258;12.574;2023-02-08T07:43:25;-3.20;99.90
13598;DHT22;38563;54.258;12.574;2023-02-08T07:45:57;-3.20;99.90
13598;DHT22;38563;54.258;12.574;2023-02-08T07:48:25;-3.10;99.90
13598;DHT22;38563;54.258;12.574;2023-02-08T07:50:52;-3.10;99.90
13598;DHT22;38563;54.258;12.574;2023-02-08T07:53:19;-3.00;99.90
13598;DHT22;38563;54.258;12.574;2023-02-08T07:55:45;-3.00;99.90
13598;DHT22;38563;54.258;12.574;2023-02-08T07:58:12;-2.90;99.90
13598;DHT22;38563;54.258;12.574;2023-02-08T08:00:40;-2.70;99.90
13598;DHT22;38563;54.258;12.574;2023-02-08T08:03:07;-2.50;99.90
13598;DHT22;38563;54.258;12.574;2023-02-08T08:05:35;-2.40;99.90
13598;DHT22;38563;54.258;12.574;2023-02-08T08:08:01;-2.30;99.90
13598;DHT22;38563;54.258;12.574;2023-02-08T08:10:28;-2.20;99.90
13598;DHT22;38563;54.258;12.574;2023-02-08T08:12:55;-2.20;99.90
13598;DHT22;38563;54.258;12.574;2023-02-08T08:15:21;-2.20;99.90
13598;DHT22;38563;54.258;12.574;2023-02-08T08:17:48;-2.10;99.90
13598;DHT22;38563;54.258;12.574;2023-02-08T08:20:15;-2.00;99.90
13598;DHT22;38563;54.258;12.574;2023-02-08T08:22:43;-2.00;99.90
13598;DHT22;38563;54.258;12.574;2023-02-08T08:25:10;-1.90;99.90
13598;DHT22;38563;54.258;12.574;2023-02-08T08:27:38;-1.80;99.90
13598;DHT22;38563;54.258;12.574;2023-02-08T08:30:06;-1.70;99.90
13598;DHT22;38563;54.258;12.574;2023-02-08T08:32:32;-1.60;99.90
13598;DHT22;38563;54.258;12.574;2023-02-08T08:34:59;-1.50;99.90
13598;DHT22;38563;54.258;12.574;2023-02-08T08:37:26;-1.40;99.90
13598;DHT22;38563;54.258;12.574;2023-02-08T08:39:54;-1.40;99.90
13598;DHT22;38563;54.258;12.574;2023-02-08T08:42:21;-1.30;99.90
13598;DHT22;38563;54.258;12.574;2023-02-08T08:44:47;-1.20;99.90
13598;DHT22;38563;54.258;12.574;2023-02-08T08:47:14;-1.20;99.90
13598;DHT22;38563;54.258;12.574;2023-02-08T08:49:41;-1.20;99.90
13598;DHT22;38563;54.258;12.574;2023-02-08T08:52:08;-1.10;99.90
13598;DHT22;38563;54.258;12.574;2023-02-08T08:54:35;-1.00;99.90
13598;DHT22;38563;54.258;12.574;2023-02-08T08:57:03;-0.90;99.90
13598;DHT22;38563;54.258;12.574;2023-02-08T08:59:30;-0.90;99.90
13598;DHT22;38563;54.258;12.574;2023-02-08T09:01:57;-1.00;99.90
13598;DHT22;38563;54.258;12.574;2023-02-08T09:04:24;-0.90;99.90
13598;DHT22;38563;54.258;12.574;2023-02-08T09:06:51;-0.90;99.90
13598;DHT22;38563;54.258;12.574;2023-02-08T09:09:19;-0.80;99.90
13598;DHT22;38563;54.258;12.574;2023-02-08T09:11:46;-0.70;99.90
13598;DHT22;38563;54.258;12.574;2023-02-08T09:14:14;-0.70;99.90
13598;DHT22;38563;54.258;12.574;2023-02-08T09:16:41;-0.70;99.90
13598;DHT22;38563;54.258;12.574;2023-02-08T09:19:11;-0.60;99.90
13598;DHT22;38563;54.258;12.574;2023-02-08T09:21:39;-0.60;99.90
13598;DHT22;38563;54.258;12.574;2023-02-08T09:24:05;-0.50;99.90
13598;DHT22;38563;54.258;12.574;2023-02-08T09:26:32;-0.50;99.90
13598;DHT22;38563;54.258;12.574;2023-02-08T09:28:59;-0.40;99.90
13598;DHT22;38563;54.258;12.574;2023-02-08T09:31:29;-0.30;99.90
13598;DHT22;38563;54.258;12.574;2023-02-08T09:33:57;-0.30;99.90
13598;DHT22;38563;54.258;12.574;2023-02-08T09:36:26;-0.20;99.90
13598;DHT22;38563;54.258;12.574;2023-02-08T09:38:54;-0.20;99.90
13598;DHT22;38563;54.258;12.574;2023-02-08T09:41:33;-0.10;99.90
13598;DHT22;38563;54.258;12.574;2023-02-08T09:44:13;-0.10;99.90
13598;DHT22;38563;54.258;12.574;2023-02-08T09:46:45;0.00;99.90
13598;DHT22;38563;54.258;12.574;2023-02-08T09:49:18;0.10;99.90
13598;DHT22;38563;54.258;12.574;2023-02-08T09:51:51;0.20;99.90
13598;DHT22;38563;54.258;12.574;2023-02-08T09:54:23;0.30;99.90
13598;DHT22;38563;54.258;12.574;2023-02-08T09:56:51;0.40;99.90
13598;DHT22;38563;54.258;12.574;2023-02-08T09:59:22;0.50;99.90
13598;DHT22;38563;54.258;12.574;2023-02-08T10:01:56;0.50;99.90
13598;DHT22;38563;54.258;12.574;2023-02-08T10:04:29;0.50;99.90
13598;DHT22;38563;54.258;12.574;2023-02-08T10:07:01;0.60;99.90
13598;DHT22;38563;54.258;12.574;2023-02-08T10:09:28;0.60;99.90
13598;DHT22;38563;54.258;12.574;2023-02-08T10:12:06;0.60;99.90
13598;DHT22;38563;54.258;12.574;2023-02-08T10:14:55;0.70;99.90
13598;DHT22;38563;54.258;12.574;2023-02-08T10:17:46;0.80;99.90
13598;DHT22;38563;54.258;12.574;2023-02-08T10:20:31;0.90;99.90
13598;DHT22;38563;54.258;12.574;2023-02-08T10:23:04;0.90;99.90
13598;DHT22;38563;54.258;12.574;2023-02-08T10:28:49;1.10;99.90
13598;DHT22;38563;54.258;12.574;2023-02-08T10:31:25;1.20;99.90
13598;DHT22;38563;54.258;12.574;2023-02-08T10:34:01;1.20;99.90
13598;DHT22;38563;54.258;12.574;2023-02-08T10:36:32;1.20;99.90
13598;DHT22;38563;54.258;12.574;2023-02-08T10:39:02;1.30;99.90
13598;DHT22;38563;54.258;12.574;2023-02-08T10:41:35;1.40;99.90
13598;DHT22;38563;54.258;12.574;2023-02-08T10:44:08;1.40;99.90
13598;DHT22;38563;54.258;12.574;2023-02-08T10:46:43;1.40;99.90
13598;DHT22;38563;54.258;12.574;2023-02-08T10:49:19;1.40;99.90
13598;DHT22;38563;54.258;12.574;2023-02-08T10:51:48;1.50;99.90
13598;DHT22;38563;54.258;12.574;2023-02-08T10:54:15;1.50;99.90
13598;DHT22;38563;54.258;12.574;2023-02-08T10:56:45;1.50;99.90
13598;DHT22;38563;54.258;12.574;2023-02-08T10:59:16;1.50;99.90
13598;DHT22;38563;54.258;12.574;2023-02-08T11:01:45;1.50;99.90
13598;DHT22;38563;54.258;12.574;2023-02-08T11:04:12;1.60;99.90
13598;DHT22;38563;54.258;12.574;2023-02-08T11:06:42;1.70;99.90
13598;DHT22;38563;54.258;12.574;2023-02-08T11:09:23;1.80;99.90
13598;DHT22;38563;54.258;12.574;2023-02-08T11:11:51;1.80;99.90
13598;DHT22;38563;54.258;12.574;2023-02-08T11:14:23;1.90;99.90
13598;DHT22;38563;54.258;12.574;2023-02-08T11:16:52;1.90;99.90
13598;DHT22;38563;54.258;12.574;2023-02-08T11:19:22;1.90;99.90
13598;DHT22;38563;54.258;12.574;2023-02-08T11:21:55;1.90;99.90
13598;DHT22;38563;54.258;12.574;2023-02-08T11:24:27;2.00;99.90
13598;DHT22;38563;54.258;12.574;2023-02-08T11:26:55;2.00;99.90
13598;DHT22;38563;54.258;12.574;2023-02-08T11:29:23;2.00;99.90
13598;DHT22;38563;54.258;12.574;2023-02-08T11:31:59;2.10;99.90
13598;DHT22;38563;54.258;12.574;2023-02-08T11:34:27;2.20;99.90
13598;DHT22;38563;54.258;12.574;2023-02-08T11:36:57;2.10;99.90
13598;DHT22;38563;54.258;12.574;2023-02-08T11:39:27;2.20;99.90
13598;DHT22;38563;54.258;12.574;2023-02-08T11:41:56;2.20;99.90
13598;DHT22;38563;54.258;12.574;2023-02-08T11:44:26;2.20;99.90
13598;DHT22;38563;54.258;12.574;2023-02-08T11:46:56;2.20;99.90
13598;DHT22;38563;54.258;12.574;2023-02-08T11:49:26;2.20;99.90
13598;DHT22;38563;54.258;12.574;2023-02-08T11:51:56;2.20;99.90
13598;DHT22;38563;54.258;12.574;2023-02-08T11:54:35;2.30;99.90
13598;DHT22;38563;54.258;12.574;2023-02-08T11:57:11;2.40;99.90
13598;DHT22;38563;54.258;12.574;2023-02-08T12:03:55;2.40;99.90
13598;DHT22;38563;54.258;12.574;2023-02-08T12:11:14;2.50;99.90
13598;DHT22;38563;54.258;12.574;2023-02-08T12:13:54;2.50;99.90
13598;DHT22;38563;54.258;12.574;2023-02-08T12:27:46;2.50;99.90
13598;DHT22;38563;54.258;12.574;2023-02-08T12:41:27;2.60;99.90
13598;DHT22;38563;54.258;12.574;2023-02-08T12:44:03;2.60;99.90
13598;DHT22;38563;54.258;12.574;2023-02-08T12:46:47;2.70;99.90
13598;DHT22;38563;54.258;12.574;2023-02-08T12:52:25;2.70;99.90
13598;DHT22;38563;54.258;12.574;2023-02-08T12:54:57;2.70;99.90
13598;DHT22;38563;54.258;12.574;2023-02-08T12:57:28;2.70;99.90
13598;DHT22;38563;54.258;12.574;2023-02-08T13:00:01;2.70;99.90
13598;DHT22;38563;54.258;12.574;2023-02-08T13:02:31;2.70;99.90
13598;DHT22;38563;54.258;12.574;2023-02-08T13:05:02;2.70;99.90
13598;DHT22;38563;54.258;12.574;2023-02-08T13:07:33;2.80;99.90
13598;DHT22;38563;54.258;12.574;2023-02-08T13:10:06;2.80;99.90
13598;DHT22;38563;54.258;12.574;2023-02-08T13:12:36;2.90;99.90
13598;DHT22;38563;54.258;12.574;2023-02-08T13:15:12;2.90;99.90
13598;DHT22;38563;54.258;12.574;2023-02-08T13:17:44;2.80;99.90
13598;DHT22;38563;54.258;12.574;2023-02-08T13:20:35;2.90;99.90
13598;DHT22;38563;54.258;12.574;2023-02-08T13:23:12;2.80;99.90
13598;DHT22;38563;54.258;12.574;2023-02-08T13:25:41;2.80;99.90
13598;DHT22;38563;54.258;12.574;2023-02-08T13:28:18;2.80;99.90
13598;DHT22;38563;54.258;12.574;2023-02-08T13:30:55;2.80;99.90
13598;DHT22;38563;54.258;12.574;2023-02-08T13:33:30;2.80;99.90
13598;DHT22;38563;54.258;12.574;2023-02-08T13:35:58;2.80;99.90
13598;DHT22;38563;54.258;12.574;2023-02-08T13:38:28;2.80;99.90
13598;DHT22;38563;54.258;12.574;2023-02-08T13:41:05;2.80;99.90
13598;DHT22;38563;54.258;12.574;2023-02-08T13:43:37;2.80;99.90
13598;DHT22;38563;54.258;12.574;2023-02-08T13:46:07;2.70;99.90
13598;DHT22;38563;54.258;12.574;2023-02-08T13:48:47;2.70;99.90
13598;DHT22;38563;54.258;12.574;2023-02-08T13:54:27;2.70;99.90
13598;DHT22;38563;54.258;12.574;2023-02-08T13:57:26;2.70;99.90
13598;DHT22;38563;54.258;12.574;2023-02-08T14:00:23;2.70;99.90
13598;DHT22;38563;54.258;12.574;2023-02-08T14:02:59;2.60;99.90
13598;DHT22;38563;54.258;12.574;2023-02-08T14:05:46;2.60;99.90
13598;DHT22;38563;54.258;12.574;2023-02-08T14:08:20;2.60;99.90
13598;DHT22;38563;54.258;12.574;2023-02-08T14:11:01;2.60;99.90
13598;DHT22;38563;54.258;12.574;2023-02-08T14:13:32;2.50;99.90
13598;DHT22;38563;54.258;12.574;2023-02-08T14:16:25;2.40;99.90
13598;DHT22;38563;54.258;12.574;2023-02-08T14:18:56;2.40;99.90
13598;DHT22;38563;54.258;12.574;2023-02-08T14:21:31;2.30;99.90
13598;DHT22;38563;54.258;12.574;2023-02-08T14:24:00;2.30;99.90
13598;DHT22;38563;54.258;12.574;2023-02-08T14:26:28;2.30;99.90
13598;DHT22;38563;54.258;12.574;2023-02-08T14:28:56;2.30;99.90
13598;DHT22;38563;54.258;12.574;2023-02-08T14:31:36;2.20;99.90
13598;DHT22;38563;54.258;12.574;2023-02-08T14:34:05;2.20;99.90
13598;DHT22;38563;54.258;12.574;2023-02-08T14:36:33;2.10;99.90
13598;DHT22;38563;54.258;12.574;2023-02-08T14:39:06;2.10;99.90
13598;DHT22;38563;54.258;12.574;2023-02-08T14:41:47;2.10;99.90
13598;DHT22;38563;54.258;12.574;2023-02-08T14:50:34;1.90;99.90
13598;DHT22;38563;54.258;12.574;2023-02-08T14:53:05;1.90;99.90
13598;DHT22;38563;54.258;12.574;2023-02-08T14:55:45;1.90;99.90
13598;DHT22;38563;54.258;12.574;2023-02-08T14:58:20;1.80;99.90
13598;DHT22;38563;54.258;12.574;2023-02-08T15:00:50;1.80;99.90
13598;DHT22;38563;54.258;12.574;2023-02-08T15:03:17;1.70;99.90
13598;DHT22;38563;54.258;12.574;2023-02-08T15:06:08;1.70;99.90
13598;DHT22;38563;54.258;12.574;2023-02-08T15:08:38;1.60;99.90
13598;DHT22;38563;54.258;12.574;2023-02-08T15:11:19;1.60;99.90
13598;DHT22;38563;54.258;12.574;2023-02-08T15:13:48;1.50;99.90
13598;DHT22;38563;54.258;12.574;2023-02-08T15:16:15;1.50;99.90
13598;DHT22;38563;54.258;12.574;2023-02-08T15:18:44;1.40;99.90
13598;DHT22;38563;54.258;12.574;2023-02-08T15:21:17;1.40;99.90
13598;DHT22;38563;54.258;12.574;2023-02-08T15:23:57;1.40;99.90
13598;DHT22;38563;54.258;12.574;2023-02-08T15:26:24;1.40;99.90
13598;DHT22;38563;54.258;12.574;2023-02-08T15:28:51;1.30;99.90
13598;DHT22;38563;54.258;12.574;2023-02-08T15:31:20;1.20;99.90
13598;DHT22;38563;54.258;12.574;2023-02-08T15:33:48;1.20;99.90
13598;DHT22;38563;54.258;12.574;2023-02-08T15:36:26;1.10;99.90
13598;DHT22;38563;54.258;12.574;2023-02-08T15:38:54;1.10;99.90
13598;DHT22;38563;54.258;12.574;2023-02-08T15:41:24;1.00;99.90
13598;DHT22;38563;54.258;12.574;2023-02-08T15:44:00;0.90;99.90
13598;DHT22;38563;54.258;12.574;2023-02-08T15:46:27;0.90;99.90
13598;DHT22;38563;54.258;12.574;2023-02-08T15:48:55;0.80;99.90
13598;DHT22;38563;54.258;12.574;2023-02-08T15:51:24;0.80;99.90
13598;DHT22;38563;54.258;12.574;2023-02-08T15:53:53;0.80;99.90
13598;DHT22;38563;54.258;12.574;2023-02-08T15:56:23;0.70;99.90
13598;DHT22;38563;54.258;12.574;2023-02-08T15:58:53;0.70;99.90
13598;DHT22;38563;54.258;12.574;2023-02-08T16:01:22;0.60;99.90
13598;DHT22;38563;54.258;12.574;2023-02-08T16:03:51;0.60;99.90
13598;DHT22;38563;54.258;12.574;2023-02-08T16:06:23;0.60;99.90
13598;DHT22;38563;54.258;12.574;2023-02-08T16:08:51;0.50;99.90
13598;DHT22;38563;54.258;12.574;2023-02-08T16:11:22;0.50;99.90
13598;DHT22;38563;54.258;12.574;2023-02-08T16:13:51;0.50;99.90
13598;DHT22;38563;54.258;12.574;2023-02-08T16:16:21;0.40;99.90
13598;DHT22;38563;54.258;12.574;2023-02-08T16:18:56;0.40;99.90
13598;DHT22;38563;54.258;12.574;2023-02-08T16:21:31;0.30;99.90
13598;DHT22;38563;54.258;12.574;2023-02-08T16:24:04;0.20;99.90
13598;DHT22;38563;54.258;12.574;2023-02-08T16:26:33;0.20;99.90
13598;DHT22;38563;54.258;12.574;2023-02-08T16:29:03;0.20;99.90
13598;DHT22;38563;54.258;12.574;2023-02-08T16:31:33;0.20;99.90
13598;DHT22;38563;54.258;12.574;2023-02-08T16:34:03;0.20;99.90